Observations for OLBIA COSTA SMERALD, Italy (LIEO)

LIEO 221320Z 24019KT 6000 RA BKN025 08/06 Q1006 
LIEO 221250Z 23018KT 9999 FEW015 SCT025 10/05 Q1006 
LIEO 221220Z 23012KT 9999 FEW020 SCT030 09/07 Q1007 
LIEO 221150Z 22011KT 9999 -RA SCT030 07/06 Q1007
LIEO 221120Z 24017KT 6000 VCSH -RA BKN030 08/06 Q1008   
LIEO 221050Z 23017KT 9999 SCT030 09/05 Q1008
LIEO 221020Z 24014KT 9999 SCT025 11/07 Q1008
LIEO 220950Z 26012KT 9999 SCT025 11/06 Q1008
LIEO 220920Z 27010KT 230V290 9999 SCT025 11/06 Q1007
LIEO 220850Z 23011KT 9999 FEW015 SCT025 09/07 Q1007 
LIEO 220820Z 22008KT 9999 FEW015 SCT025 08/06 Q1008 
LIEO 220750Z 23007KT 9999 FEW015 SCT025 08/06 Q1008 
LIEO 220720Z 24011KT 9999 FEW015 SCT025 08/06 Q1008 
LIEO 220650Z 22010KT 9999 SCT025 07/06 Q1007
LIEO 220620Z 23009KT 9999 SCT030 07/06 Q1007
LIEO 220550Z 23009KT 9999 FEW020 07/06 Q1007
LIEO 220520Z 24010KT 9999 FEW030 07/07 Q1008
LIEO 220450Z 24010KT CAVOK 08/07 Q1008  
LIEO 220420Z 23006KT CAVOK 08/07 Q1008  
LIEO 220350Z 23008KT CAVOK 08/08 Q1008  
LIEO 220320Z 23007KT CAVOK 08/08 Q1008  
LIEO 220250Z 24006KT CAVOK 08/07 Q1008  
LIEO 220220Z 23005KT CAVOK 08/07 Q1009  
LIEO 220150Z 18003KT 140V200 CAVOK 08/08 Q1009  
LIEO 220120Z 24004KT 190V280 CAVOK 09/08 Q1009  
LIEO 220050Z 29006KT 260V330 CAVOK 09/09 Q1009  
LIEO 220020Z 25006KT CAVOK 08/08 Q1009  
LIEO 212350Z 28005KT 9999 FEW040 08/08 Q1009
LIEO 212320Z 30005KT 9999 FEW040 08/08 Q1010
LIEO 212250Z 30007KT 9999 FEW050 08/08 Q1010
LIEO 212220Z 30006KT 9999 -RA SCT040 08/08 Q1010
LIEO 212150Z 32006KT 9999 -RA SCT040 08/08 Q1010
LIEO 212120Z 31005KT 280V350 9000 SCT040 09/09 Q1010
LIEO 212050Z 32005KT 270V350 9999 -SHRA SCT040 09/09 Q1010  
LIEO 212020Z 33007KT 9999 FEW050 09/08 Q1010
LIEO 211950Z 32007KT 290V360 5000 -RA BKN020 09/09 Q1010
LIEO 211920Z 34007KT 6000 -RA BKN020 09/09 Q1009
LIEO 211850Z 33006KT 6000 -RA BKN020 09/07 Q1009
LIEO 211820Z 31006KT 280V350 6000 -RA BKN020 09/08 Q1009
LIEO 211750Z 32006KT 5000 -RA BKN020 09/08 Q1009
LIEO 211720Z 32006KT 5000 -RA BKN020 09/08 Q1009
LIEO 211650Z 32006KT 5000 -RA BKN020 09/09 Q1009
LIEO 211620Z 33007KT 4000 -RA BKN015 09/09 Q1009 RERA   
LIEO 211550Z 33007KT 300V010 4000 RA BKN015 09/09 Q1009 
LIEO 211520Z 36009KT 330V030 5000 -RA FEW010 BKN015 10/10 Q1009 
LIEO 211450Z 01009KT 5000 -RA BKN015 09/09 Q1009
LIEO 211420Z 36005KT 320V020 4000 RA BKN015 10/10 Q1009 
LIEO 211350Z 02004KT 340V130 4000 RA BKN015 09/09 Q1009 
LIEO 211320Z 36004KT 300V100 6000 -RA BKN020 09/09 Q1009
LIEO 211250Z VRB02KT 6000 -RA BKN020 09/09 Q1009